Time;durP1;ratioP1;P1;durP2;ratioP2;P2;SDS_P1;SDS_P2;PMS_P1;PMS_P2;Temp;Humidity;BMP_temperature;BMP_pressure;BME280_temperature;BME280_humidity;BME280_pressure;Samples;Min_cycle;Max_cycle;Signal;HPM_P1;HPM_P2
2023/10/31 00:01:32;;;;;;;4.00;1.30;;;;;;;12.05;100.00;99110.16;6276260;28;20049;-80
2023/10/31 00:04:33;;;;;;;2.70;1.60;;;;;;;12.08;100.00;99109.91;6276579;28;20353;-80
2023/10/31 00:07:35;;;;;;;2.33;1.50;;;;;;;12.07;100.00;99107.38;6276347;28;20053;-80
2023/10/31 00:10:36;;;;;;;4.60;2.15;;;;;;;12.08;100.00;99109.91;6276407;28;20156;-79
2023/10/31 00:13:39;;;;;;;2.97;1.90;;;;;;;12.09;100.00;99110.75;6276035;28;20060;-80
2023/10/31 00:16:40;;;;;;;3.53;1.98;;;;;;;12.08;100.00;99111.69;6276345;28;20056;-79
2023/10/31 00:19:42;;;;;;;2.60;1.75;;;;;;;12.05;100.00;99109.31;6276025;28;20044;-80
2023/10/31 00:22:43;;;;;;;2.45;1.98;;;;;;;12.06;100.00;99108.34;6275907;28;20182;-80
2023/10/31 00:25:45;;;;;;;3.80;2.17;;;;;;;12.03;100.00;99109.44;6276117;28;20052;-79
2023/10/31 00:28:47;;;;;;;14.18;2.40;;;;;;;12.03;100.00;99103.34;6276164;28;20056;-79
2023/10/31 00:31:49;;;;;;;4.88;2.03;;;;;;;12.07;100.00;99096.84;6275666;28;20052;-80
2023/10/31 00:34:50;;;;;;;3.53;2.30;;;;;;;12.05;100.00;99090.91;6275647;28;20057;-80
2023/10/31 00:37:51;;;;;;;9.52;2.92;;;;;;;12.06;100.00;99098.66;6275856;28;20053;-79
2023/10/31 00:40:53;;;;;;;4.25;2.00;;;;;;;12.04;100.00;99090.06;6275444;28;20053;-79
2023/10/31 00:43:56;;;;;;;5.68;2.35;;;;;;;12.02;100.00;99086.72;6275182;28;20434;-79
2023/10/31 00:46:57;;;;;;;7.13;2.33;;;;;;;12.02;100.00;99086.72;6275818;28;20052;-79
2023/10/31 00:49:58;;;;;;;4.47;2.30;;;;;;;12.00;100.00;99093.94;6275545;28;20060;-78
2023/10/31 00:53:00;;;;;;;7.40;2.88;;;;;;;12.00;100.00;99078.13;6275002;28;20428;-79
2023/10/31 00:56:02;;;;;;;4.13;2.10;;;;;;;12.02;100.00;99081.44;6275539;28;20048;-79
2023/10/31 00:59:05;;;;;;;8.45;2.50;;;;;;;12.01;100.00;99077.16;6275055;28;20357;-79
2023/10/31 01:02:06;;;;;;;4.20;2.13;;;;;;;12.02;100.00;99083.25;6274897;28;20052;-79
2023/10/31 01:05:08;;;;;;;4.10;2.60;;;;;;;12.03;100.00;99082.28;6273805;28;20049;-79
2023/10/31 01:08:10;;;;;;;3.00;2.13;;;;;;;12.03;100.00;99093.66;6274014;28;20361;-79
2023/10/31 01:11:11;;;;;;;5.93;2.40;;;;;;;12.10;100.00;99084.25;6259747;28;20057;-80
2023/10/31 01:14:14;;;;;;;4.95;2.45;;;;;;;12.08;100.00;99082.72;6255793;28;20052;-79
2023/10/31 01:17:15;;;;;;;5.50;2.35;;;;;;;12.07;100.00;99088.94;6275282;28;20052;-79
2023/10/31 01:20:17;;;;;;;6.05;2.20;;;;;;;12.02;100.00;99086.72;6275131;28;20048;-79
2023/10/31 01:23:18;;;;;;;6.05;2.30;;;;;;;12.13;100.00;99081.38;6274875;28;20064;-79
2023/10/31 01:26:19;;;;;;;3.95;2.35;;;;;;;12.15;100.00;99091.75;6275039;28;20041;-79
2023/10/31 01:29:22;;;;;;;4.05;2.35;;;;;;;12.10;100.00;99080.78;6275260;28;20053;-79
2023/10/31 01:32:24;;;;;;;6.57;2.65;;;;;;;12.10;100.00;99070.25;6274716;28;20049;-79
2023/10/31 01:35:25;;;;;;;4.05;2.38;;;;;;;12.11;100.00;99075.38;6274750;28;20049;-79
2023/10/31 01:38:26;;;;;;;4.43;2.13;;;;;;;12.11;100.00;99071.94;6275067;28;20056;-79
2023/10/31 01:41:28;;;;;;;4.97;2.80;;;;;;;12.10;100.00;99065.81;6274660;28;20049;-78
2023/10/31 01:44:31;;;;;;;7.10;2.75;;;;;;;12.10;100.00;99065.00;6274876;28;20044;-80
2023/10/31 01:47:32;;;;;;;4.07;2.30;;;;;;;12.09;100.00;99065.97;6274763;28;20372;-79
2023/10/31 01:50:34;;;;;;;3.13;1.98;;;;;;;12.08;100.00;99070.41;6274925;28;20138;-80
2023/10/31 01:53:36;;;;;;;3.40;1.88;;;;;;;12.08;100.00;99067.78;6274589;28;20045;-80
2023/10/31 01:56:38;;;;;;;4.15;2.20;;;;;;;12.09;100.00;99068.59;6279683;28;20052;-79
2023/10/31 01:59:41;;;;;;;4.53;2.22;;;;;;;12.07;100.00;99067.88;6279408;28;20060;-80
2023/10/31 02:02:43;;;;;;;5.70;2.42;;;;;;;12.07;100.00;99063.44;6279493;28;20060;-79
2023/10/31 02:05:44;;;;;;;4.88;2.92;;;;;;;12.07;100.00;99052.09;6279326;28;20044;-79
2023/10/31 02:08:48;;;;;;;7.07;2.83;;;;;;;12.09;100.00;99053.63;6279184;28;20060;-79
2023/10/31 02:11:49;;;;;;;6.05;2.42;;;;;;;12.09;100.00;99045.75;6279102;28;20059;-79
2023/10/31 02:14:52;;;;;;;5.05;2.75;;;;;;;12.03;100.00;99045.41;6279061;28;20464;-79
2023/10/31 02:17:53;;;;;;;6.03;3.00;;;;;;;12.02;100.00;99047.22;6279073;28;20053;-79
2023/10/31 02:20:54;;;;;;;3.30;2.55;;;;;;;12.03;100.00;99043.63;6278686;28;20049;-79
2023/10/31 02:23:59;;;;;;;3.97;2.53;;;;;;;12.07;100.00;99038.94;6278772;28;20136;-79
2023/10/31 02:27:01;;;;;;;4.25;2.70;;;;;;;12.07;100.00;99039.75;6278879;28;20044;-79
2023/10/31 02:30:02;;;;;;;3.75;2.47;;;;;;;12.07;100.00;99029.22;6279118;28;20064;-79
2023/10/31 02:33:04;;;;;;;3.97;2.58;;;;;;;12.05;100.00;99025.06;6278678;28;20056;-78
2023/10/31 02:36:05;;;;;;;4.93;2.83;;;;;;;12.06;100.00;99019.66;6278895;28;20045;-79
2023/10/31 02:39:08;;;;;;;5.07;2.70;;;;;;;12.06;100.00;99019.66;6278625;28;20049;-79
2023/10/31 02:42:10;;;;;;;4.00;2.53;;;;;;;12.07;100.00;99028.38;6278290;28;20045;-79
2023/10/31 02:45:11;;;;;;;4.93;3.13;;;;;;;12.11;100.00;99020.09;6278466;28;20056;-79
2023/10/31 02:48:13;;;;;;;3.28;2.20;;;;;;;12.12;100.00;99013.84;6278349;28;20063;-80
2023/10/31 02:51:14;;;;;;;7.53;3.08;;;;;;;12.11;100.00;99006.94;6277948;28;20056;-79
2023/10/31 02:54:17;;;;;;;3.45;2.45;;;;;;;12.12;100.00;99008.59;6278146;28;20048;-79
2023/10/31 02:57:18;;;;;;;2.72;2.05;;;;;;;12.12;100.00;99010.38;6278215;28;20049;-79
2023/10/31 03:00:20;;;;;;;3.60;2.33;;;;;;;12.12;100.00;99000.69;6277891;28;20048;-79
2023/10/31 03:03:21;;;;;;;4.32;2.40;;;;;;;12.12;100.00;98995.41;6278200;28;20059;-79
2023/10/31 03:06:23;;;;;;;6.68;2.40;;;;;;;12.13;100.00;99001.53;6277427;28;20041;-79
2023/10/31 03:09:26;;;;;;;6.78;2.15;;;;;;;12.13;100.00;98997.09;6278044;28;20049;-80
2023/10/31 03:12:28;;;;;;;5.13;2.60;;;;;;;12.14;100.00;99000.56;6277464;28;20056;-80
2023/10/31 03:15:30;;;;;;;5.57;2.90;;;;;;;12.11;100.00;98985.03;6277796;28;20059;-78
2023/10/31 03:18:31;;;;;;;4.22;2.25;;;;;;;12.11;100.00;98983.22;6277613;28;20449;-79
2023/10/31 03:21:32;;;;;;;5.47;2.28;;;;;;;12.11;100.00;98985.03;6277208;28;20057;-79
2023/10/31 03:24:35;;;;;;;3.60;2.35;;;;;;;12.12;100.00;98986.69;6277624;28;20053;-79
2023/10/31 03:27:37;;;;;;;3.83;2.40;;;;;;;12.16;100.00;98988.09;6277349;28;20041;-79
2023/10/31 03:30:38;;;;;;;4.40;2.53;;;;;;;12.14;100.00;98976.88;6277606;28;20052;-79
2023/10/31 03:33:40;;;;;;;4.47;3.13;;;;;;;12.16;100.00;98982.81;6277082;28;20053;-79
2023/10/31 03:36:41;;;;;;;4.40;2.72;;;;;;;12.11;100.00;98985.88;6277310;28;20052;-79
2023/10/31 03:39:44;;;;;;;5.25;3.05;;;;;;;12.11;100.00;98979.75;6276939;28;20442;-78
2023/10/31 03:42:45;;;;;;;4.10;2.42;;;;;;;12.14;100.00;98982.97;6277119;28;20060;-79
2023/10/31 03:45:47;;;;;;;4.47;2.67;;;;;;;12.12;100.00;98987.53;6276843;28;20056;-79
2023/10/31 03:48:49;;;;;;;4.85;3.25;;;;;;;12.11;100.00;98992.94;6276131;28;20055;-79
2023/10/31 03:51:50;;;;;;;6.95;3.97;;;;;;;12.03;100.00;98998.84;6276505;28;20049;-78
2023/10/31 03:54:53;;;;;;;7.63;4.90;;;;;;;11.95;100.00;98997.88;6276877;28;20060;-78
2023/10/31 03:57:54;;;;;;;9.13;6.10;;;;;;;11.88;100.00;99003.66;6276563;28;20048;-78
2023/10/31 04:00:56;;;;;;;10.13;6.00;;;;;;;11.78;100.00;99007.22;6276543;28;20060;-77
2023/10/31 04:03:57;;;;;;;8.90;5.97;;;;;;;11.73;100.00;99010.22;6276278;28;20135;-79
2023/10/31 04:06:58;;;;;;;12.00;6.72;;;;;;;11.61;100.00;99024.44;6276483;28;20457;-79
2023/10/31 04:10:01;;;;;;;11.82;6.50;;;;;;;11.56;100.00;99011.66;6276529;28;20055;-78
2023/10/31 04:13:03;;;;;;;10.13;6.35;;;;;;;11.59;100.00;99018.47;6276148;28;20056;-78
2023/10/31 04:16:05;;;;;;;7.88;5.40;;;;;;;11.54;100.00;99020.66;6275830;28;20365;-78
2023/10/31 04:19:06;;;;;;;7.00;4.72;;;;;;;11.47;100.00;99024.78;6276056;28;20049;-78
2023/10/31 04:22:08;;;;;;;6.28;3.78;;;;;;;11.43;100.00;99022.38;6275866;28;20049;-78
2023/10/31 04:25:11;;;;;;;5.82;3.60;;;;;;;11.38;100.00;99021.13;6276200;28;20056;-78
2023/10/31 04:28:13;;;;;;;5.43;2.42;;;;;;;11.29;100.00;99025.34;6276215;28;20111;-78
2023/10/31 04:31:14;;;;;;;3.58;2.20;;;;;;;11.23;100.00;99027.69;6275666;28;20059;-78
2023/10/31 04:34:16;;;;;;;3.08;2.10;;;;;;;11.26;100.00;99027.41;6276042;28;20052;-79
2023/10/31 04:37:17;;;;;;;2.42;1.63;;;;;;;11.22;100.00;99018.09;6275814;28;20041;-80
2023/10/31 04:40:20;;;;;;;2.50;1.63;;;;;;;11.21;100.00;99040.09;6275966;28;20053;-80
2023/10/31 04:43:21;;;;;;;2.63;1.52;;;;;;;11.22;100.00;99036.50;6275699;28;20052;-78
2023/10/31 04:46:23;;;;;;;2.25;1.30;;;;;;;11.22;100.00;99047.88;6275761;28;20045;-76
2023/10/31 04:49:24;;;;;;;1.00;0.60;;;;;;;11.02;100.00;99046.88;6275888;28;20060;-75
2023/10/31 04:52:25;;;;;;;0.88;0.60;;;;;;;10.92;100.00;99070.47;6275051;28;20072;-76
2023/10/31 04:55:28;;;;;;;0.50;0.50;;;;;;;10.68;100.00;99076.88;6275669;28;20053;-75
2023/10/31 04:58:30;;;;;;;0.60;0.60;;;;;;;10.66;100.00;99066.47;6275249;28;20041;-74
2023/10/31 05:01:31;;;;;;;0.52;0.40;;;;;;;10.72;100.00;99078.28;6275281;28;20441;-74
2023/10/31 05:04:32;;;;;;;0.45;0.43;;;;;;;10.70;100.00;99075.78;6275279;28;20053;-75
2023/10/31 05:07:34;;;;;;;0.77;0.30;;;;;;;10.60;100.00;99094.09;6275525;28;20049;-74
2023/10/31 05:10:36;;;;;;;0.32;0.30;;;;;;;10.48;100.00;99092.44;6275229;28;20045;-75
2023/10/31 05:13:39;;;;;;;0.20;0.20;;;;;;;10.43;100.00;99099.00;6275397;28;20056;-75
2023/10/31 05:16:42;;;;;;;0.20;0.20;;;;;;;10.42;100.00;99090.31;6275217;28;20084;-73
2023/10/31 05:19:43;;;;;;;0.20;0.20;;;;;;;10.37;100.00;99095.09;6275391;28;20433;-73
2023/10/31 05:22:44;;;;;;;0.10;0.10;;;;;;;10.31;100.00;99106.91;6274710;28;20045;-75
2023/10/31 05:25:47;;;;;;;0.15;0.10;;;;;;;10.33;100.00;99104.16;6275036;28;20056;-77
2023/10/31 05:28:49;;;;;;;0.20;0.20;;;;;;;10.30;100.00;99120.97;6277498;28;20045;-75
2023/10/31 05:31:50;;;;;;;0.22;0.22;;;;;;;10.26;100.00;99118.72;6279726;28;20369;-74
2023/10/31 05:34:51;;;;;;;3.35;0.10;;;;;;;10.27;100.00;99133.53;6280201;28;20053;-73
2023/10/31 05:37:53;;;;;;;0.17;0.17;;;;;;;10.21;100.00;99126.06;6279778;28;20051;-77
2023/10/31 05:40:56;;;;;;;0.10;0.10;;;;;;;10.14;100.00;99144.94;6279884;28;20053;-73
2023/10/31 05:43:57;;;;;;;0.10;0.10;;;;;;;10.13;100.00;99148.53;6279586;28;20491;-73
2023/10/31 05:46:58;;;;;;;1.17;0.15;;;;;;;10.08;100.00;99134.06;6280025;28;20044;-74
2023/10/31 05:50:00;;;;;;;0.10;0.10;;;;;;;10.10;100.00;99166.28;6279677;28;20048;-72
2023/10/31 05:53:02;;;;;;;0.10;0.10;;;;;;;10.14;100.00;99171.19;6279591;28;20064;-74
2023/10/31 05:56:07;;;;;;;0.10;0.10;;;;;;;10.12;100.00;99167.00;6279506;28;20369;-73
2023/10/31 05:59:08;;;;;;;0.13;0.13;;;;;;;10.17;100.00;99177.97;6279322;28;20072;-73
2023/10/31 06:02:10;;;;;;;0.20;0.20;;;;;;;10.14;100.00;99181.69;6279240;28;20060;-73
2023/10/31 06:05:11;;;;;;;2.60;0.30;;;;;;;10.11;100.00;99189.78;6278995;28;20475;-75
2023/10/31 06:08:13;;;;;;;1.65;0.40;;;;;;;10.06;100.00;99189.31;6279457;28;20041;-74
2023/10/31 06:11:15;;;;;;;0.20;0.20;;;;;;;10.00;100.00;99202.06;6278970;28;20349;-73
2023/10/31 06:14:17;;;;;;;0.20;0.20;;;;;;;10.04;100.00;99204.34;6279278;28;20049;-76
2023/10/31 06:17:18;;;;;;;0.95;0.47;;;;;;;9.99;100.00;99203.88;6279049;28;20045;-75
2023/10/31 06:20:20;;;;;;;0.65;0.50;;;;;;;9.96;100.00;99214.59;6278923;28;20357;-72
2023/10/31 06:23:21;;;;;;;1.83;0.40;;;;;;;9.96;100.00;99211.13;6278546;28;20045;-75
2023/10/31 06:26:24;;;;;;;0.80;0.70;;;;;;;10.12;100.00;99237.88;6278785;28;20353;-74
2023/10/31 06:29:25;;;;;;;1.25;0.52;;;;;;;10.07;100.00;99245.25;6278905;28;20056;-76
2023/10/31 06:32:27;;;;;;;1.00;0.70;;;;;;;9.99;100.00;99235.34;6278459;28;20049;-74
2023/10/31 06:35:29;;;;;;;2.33;0.73;;;;;;;9.91;100.00;99256.06;6278823;28;20610;-75
2023/10/31 06:38:30;;;;;;;3.97;0.52;;;;;;;9.97;100.00;99255.63;6278480;28;20502;-76
2023/10/31 06:41:34;;;;;;;0.52;0.52;;;;;;;10.01;100.00;99254.44;6277644;28;20357;-76
2023/10/31 06:44:35;;;;;;;2.33;0.77;;;;;;;9.91;100.00;99261.31;6278407;28;20156;-74
2023/10/31 06:47:36;;;;;;;0.80;0.57;;;;;;;9.99;100.00;99274.72;6278565;28;20049;-73
2023/10/31 06:50:38;;;;;;;1.35;0.77;;;;;;;10.05;100.00;99270.78;6278320;28;20049;-74
2023/10/31 06:53:39;;;;;;;1.88;0.65;;;;;;;9.90;100.00;99270.13;6278080;28;20438;-75
2023/10/31 06:56:42;;;;;;;1.17;0.82;;;;;;;9.90;100.00;99273.63;6278077;28;20357;-74
2023/10/31 06:59:43;;;;;;;2.38;0.90;;;;;;;10.02;100.00;99289.38;6277924;28;20053;-74
2023/10/31 07:02:45;;;;;;;1.58;0.85;;;;;;;10.00;100.00;99283.44;6278156;28;20056;-74
2023/10/31 07:05:46;;;;;;;4.28;0.73;;;;;;;10.03;100.00;99286.63;6277966;28;20209;-75
2023/10/31 07:08:47;;;;;;;2.90;1.27;;;;;;;10.14;100.00;99289.31;6278053;28;20045;-75
2023/10/31 07:11:50;;;;;;;1.52;1.10;;;;;;;10.06;100.00;99294.28;6277812;28;20049;-74
2023/10/31 07:14:52;;;;;;;2.60;1.40;;;;;;;10.03;100.00;99293.69;6277674;28;20445;-73
2023/10/31 07:17:53;;;;;;;5.78;1.38;;;;;;;10.10;100.00;99297.53;6277686;28;20052;-75
2023/10/31 07:20:54;;;;;;;5.90;1.80;;;;;;;10.20;100.00;99303.75;6277571;28;20132;-75
2023/10/31 07:23:56;;;;;;;4.30;1.67;;;;;;;10.24;100.00;99296.50;6277289;28;20049;-75
2023/10/31 07:26:59;;;;;;;3.00;1.55;;;;;;;10.13;100.00;99298.16;6277445;28;20349;-75
2023/10/31 07:30:01;;;;;;;5.70;1.88;;;;;;;10.26;100.00;99300.69;6277201;28;20187;-75
2023/10/31 07:33:02;;;;;;;5.30;2.22;;;;;;;10.34;100.00;99300.13;6277290;28;20049;-75
2023/10/31 07:36:05;;;;;;;3.17;1.75;;;;;;;10.34;100.00;99315.88;6277368;28;20053;-75
2023/10/31 07:39:06;;;;;;;2.90;1.85;;;;;;;10.21;100.00;99318.56;6277305;28;20044;-75
2023/10/31 07:42:09;;;;;;;4.75;1.85;;;;;;;10.20;100.00;99316.88;6276997;28;20052;-74
2023/10/31 07:45:11;;;;;;;5.07;1.80;;;;;;;10.16;100.00;99324.16;6276868;28;20460;-74
2023/10/31 07:48:12;;;;;;;4.80;1.80;;;;;;;10.15;100.00;99314.59;6276891;28;20354;-76
2023/10/31 07:51:14;;;;;;;2.33;1.50;;;;;;;10.12;100.00;99312.19;6276656;28;20056;-75
2023/10/31 07:54:16;;;;;;;8.23;1.50;;;;;;;10.23;100.00;99316.66;6276586;28;20468;-74
2023/10/31 07:57:19;;;;;;;1.50;1.23;;;;;;;10.18;100.00;99325.84;6276756;28;20176;-74
2023/10/31 08:00:21;;;;;;;3.15;1.83;;;;;;;10.11;100.00;99328.06;6276728;28;20045;-74
2023/10/31 08:03:22;;;;;;;3.35;1.80;;;;;;;10.05;100.00;99342.50;6276567;28;20053;-74
2023/10/31 08:06:24;;;;;;;2.60;1.55;;;;;;;9.97;100.00;99352.72;6276923;28;20056;-74
2023/10/31 08:09:25;;;;;;;2.90;1.70;;;;;;;9.94;100.00;99352.09;6276624;28;20049;-74
2023/10/31 08:12:28;;;;;;;3.38;1.83;;;;;;;9.85;100.00;99346.56;6276170;28;20125;-75
2023/10/31 08:15:30;;;;;;;2.10;1.35;;;;;;;9.92;100.00;99362.72;6276244;28;20049;-74
2023/10/31 08:18:31;;;;;;;3.75;1.92;;;;;;;9.99;100.00;99366.56;6276110;28;20135;-74
2023/10/31 08:21:34;;;;;;;3.83;1.50;;;;;;;9.98;100.00;99369.28;6275652;28;20453;-72
2023/10/31 08:24:36;;;;;;;3.50;1.98;;;;;;;9.96;100.00;99373.81;6275979;28;20132;-74
2023/10/31 08:27:39;;;;;;;3.20;1.77;;;;;;;9.93;100.00;99380.13;6275951;28;20380;-73
2023/10/31 08:30:40;;;;;;;2.92;1.92;;;;;;;10.04;100.00;99389.84;6275929;28;20049;-75
2023/10/31 08:33:42;;;;;;;2.63;1.83;;;;;;;10.04;100.00;99389.84;6275722;28;20449;-75
2023/10/31 08:36:43;;;;;;;2.83;1.58;;;;;;;10.10;100.00;99395.50;6275742;28;20055;-75
2023/10/31 08:39:44;;;;;;;2.83;1.60;;;;;;;10.08;100.00;99401.78;6275442;28;20056;-74
2023/10/31 08:42:47;;;;;;;2.80;1.75;;;;;;;10.06;100.00;99399.28;6275679;28;20048;-75
2023/10/31 08:45:49;;;;;;;4.07;1.80;;;;;;;9.84;100.00;99413.09;6275259;28;20056;-74
2023/10/31 08:48:50;;;;;;;2.97;2.17;;;;;;;9.72;100.00;99415.75;6275565;28;20048;-76
2023/10/31 08:51:52;;;;;;;3.65;2.13;;;;;;;9.79;100.00;99417.84;6275060;28;20056;-75
2023/10/31 08:54:53;;;;;;;4.60;2.58;;;;;;;9.82;100.00;99422.06;6275685;28;20053;-76
2023/10/31 08:57:56;;;;;;;17.67;8.02;;;;;;;9.83;100.00;99423.72;6275262;28;20357;-76
2023/10/31 09:00:57;;;;;;;32.67;15.00;;;;;;;9.87;100.00;99433.88;6275285;28;20053;-78
2023/10/31 09:03:59;;;;;;;23.23;9.95;;;;;;;9.90;100.00;99433.69;6274966;28;20049;-76
2023/10/31 09:07:00;;;;;;;21.58;9.63;;;;;;;9.85;100.00;99427.06;6275336;28;20048;-77
2023/10/31 09:10:03;;;;;;;12.30;4.15;;;;;;;9.96;100.00;99440.28;6275231;28;20049;-76
2023/10/31 09:13:06;;;;;;;9.73;4.80;;;;;;;9.95;100.00;99441.22;6275013;28;20056;-76
2023/10/31 09:16:08;;;;;;;5.20;3.22;;;;;;;9.93;100.00;99448.34;6275368;28;20457;-75
2023/10/31 09:19:09;;;;;;;7.20;3.90;;;;;;;10.01;100.00;99453.06;6275058;28;20049;-76
2023/10/31 09:22:11;;;;;;;5.20;3.55;;;;;;;10.06;100.00;99456.19;6274868;28;20060;-76
2023/10/31 09:25:12;;;;;;;4.68;2.97;;;;;;;9.98;100.00;99453.28;6275095;28;20431;-75
2023/10/31 09:28:15;;;;;;;3.85;2.65;;;;;;;10.01;100.00;99456.53;6275171;28;20041;-76
2023/10/31 09:31:17;;;;;;;6.97;3.45;;;;;;;10.10;100.00;99463.72;6274670;28;20103;-75
2023/10/31 09:34:18;;;;;;;6.70;3.78;;;;;;;10.11;100.00;99464.56;6274765;28;20073;-75
2023/10/31 09:37:20;;;;;;;5.63;2.97;;;;;;;10.12;100.00;99472.31;6274532;28;20058;-73
2023/10/31 09:40:22;;;;;;;8.90;3.45;;;;;;;10.14;100.00;99475.69;6275086;28;20045;-75
2023/10/31 09:43:25;;;;;;;2.92;1.80;;;;;;;10.26;100.00;99491.53;6274618;28;20079;-77
2023/10/31 09:46:29;;;;;;;4.47;2.38;;;;;;;10.18;100.00;99492.06;6274853;28;20049;-75
2023/10/31 09:49:30;;;;;;;3.58;1.80;;;;;;;10.29;100.00;99499.19;6274814;28;20048;-75
2023/10/31 09:52:32;;;;;;;6.85;3.08;;;;;;;10.24;100.00;99499.53;6274429;28;20045;-75
2023/10/31 09:55:35;;;;;;;2.95;1.77;;;;;;;10.17;100.00;99503.50;6274828;28;20048;-73
2023/10/31 09:58:39;;;;;;;5.65;2.67;;;;;;;10.21;100.00;99517.25;6274766;28;20048;-71
2023/10/31 10:01:41;;;;;;;6.93;3.35;;;;;;;10.31;100.00;99523.53;6274410;28;20068;-73
2023/10/31 10:04:43;;;;;;;4.10;2.17;;;;;;;10.24;100.00;99530.16;6274541;28;20053;-75
2023/10/31 10:07:46;;;;;;;4.80;2.45;;;;;;;10.35;100.00;99530.25;6274765;28;20134;-73
2023/10/31 10:10:49;;;;;;;2.17;1.60;;;;;;;10.38;100.00;99535.28;6274489;28;20056;-74
2023/10/31 10:13:53;;;;;;;5.60;1.60;;;;;;;10.40;100.00;99555.25;6274761;28;20057;-74
2023/10/31 10:16:55;;;;;;;6.32;1.92;;;;;;;10.39;100.00;99555.34;6278296;28;20049;-74
2023/10/31 10:20:07;;;;;;;2.60;1.33;;;;;;;10.34;100.00;99570.59;6278912;28;20353;-74
2023/10/31 10:23:09;;;;;;;3.25;2.05;;;;;;;10.33;100.00;99574.19;6278700;28;20049;-75
2023/10/31 10:26:10;;;;;;;1.55;1.35;;;;;;;10.43;100.00;99569.94;6279085;28;20048;-74
2023/10/31 10:29:13;;;;;;;1.88;1.50;;;;;;;10.50;100.00;99573.81;6279416;28;20048;-74
2023/10/31 10:32:15;;;;;;;4.82;1.60;;;;;;;10.55;100.00;99571.69;6278337;28;20192;-74
2023/10/31 10:35:17;;;;;;;3.90;1.77;;;;;;;10.54;100.00;99575.28;6271680;28;20057;-76
2023/10/31 10:38:20;;;;;;;2.00;1.17;;;;;;;10.55;100.00;99576.94;6274443;28;20045;-74
2023/10/31 10:41:23;;;;;;;2.22;1.40;;;;;;;10.60;100.00;99580.09;6277246;28;20060;-75
2023/10/31 10:44:33;;;;;;;2.75;1.90;;;;;;;10.60;100.00;99581.88;6274980;28;20049;-75
2023/10/31 10:47:37;;;;;;;4.75;1.42;;;;;;;10.57;100.00;99598.69;6266232;28;20052;-76
2023/10/31 10:50:43;;;;;;;2.25;1.60;;;;;;;10.59;100.00;99590.72;6264401;28;20072;-75
2023/10/31 10:53:50;;;;;;;2.13;1.23;;;;;;;10.71;100.00;99587.19;6276118;28;20079;-75
2023/10/31 10:56:59;;;;;;;1.65;1.15;;;;;;;10.69;100.00;99601.41;6271210;28;20053;-75
2023/10/31 11:00:08;;;;;;;1.05;0.90;;;;;;;10.75;100.00;99612.28;6263744;28;20044;-74
2023/10/31 11:03:10;;;;;;;3.10;1.13;;;;;;;10.77;100.00;99610.41;6268468;28;20049;-75
2023/10/31 11:06:12;;;;;;;2.15;1.02;;;;;;;10.76;100.00;99606.06;6267657;28;20045;-76
2023/10/31 11:09:15;;;;;;;1.67;0.88;;;;;;;10.82;100.00;99613.53;6267801;28;20138;-77
2023/10/31 11:12:17;;;;;;;1.48;0.95;;;;;;;10.80;100.00;99620.66;6277045;28;20053;-77
2023/10/31 11:15:20;;;;;;;1.60;1.05;;;;;;;10.76;100.00;99619.22;6277816;28;20056;-75
2023/10/31 11:18:23;;;;;;;1.08;0.90;;;;;;;10.82;100.00;99618.78;6265996;28;20052;-78
2023/10/31 11:21:24;;;;;;;1.73;0.93;;;;;;;10.74;100.00;99620.28;6262054;28;20050;-74
2023/10/31 11:24:27;;;;;;;1.50;0.90;;;;;;;10.64;100.00;99622.75;6253670;28;20358;-77
2023/10/31 11:27:29;;;;;;;2.03;0.80;;;;;;;10.74;100.00;99628.16;6269019;28;20045;-77
2023/10/31 11:30:35;;;;;;;1.73;1.45;;;;;;;10.63;100.00;99624.53;6273273;28;20037;-77
2023/10/31 11:33:40;;;;;;;2.63;1.40;;;;;;;10.80;100.00;99633.81;6273574;28;20041;-77
2023/10/31 11:36:41;;;;;;;3.45;0.70;;;;;;;10.86;100.00;99640.44;6268891;28;20330;-77
2023/10/31 11:39:43;;;;;;;0.80;0.73;;;;;;;10.91;100.00;99630.44;6277469;28;20049;-78
2023/10/31 11:42:47;;;;;;;1.95;1.20;;;;;;;10.83;100.00;99624.88;6277001;28;20056;-77
2023/10/31 11:45:50;;;;;;;1.85;1.25;;;;;;;10.85;100.00;99626.44;6270498;28;20061;-78
2023/10/31 11:48:54;;;;;;;4.25;1.10;;;;;;;10.93;100.00;99625.88;6275733;28;20147;-77
2023/10/31 11:51:55;;;;;;;1.52;0.98;;;;;;;11.06;100.00;99634.56;6276694;28;20451;-78
2023/10/31 11:54:57;;;;;;;2.10;0.80;;;;;;;11.10;100.00;99637.81;6276819;28;20056;-77
2023/10/31 11:57:58;;;;;;;3.03;0.80;;;;;;;11.11;100.00;99637.69;6276998;28;20057;-78
2023/10/31 12:01:05;;;;;;;2.88;0.93;;;;;;;11.12;100.00;99638.53;6276547;28;20049;-77
2023/10/31 12:04:06;;;;;;;0.82;0.70;;;;;;;11.11;100.00;99644.75;6276892;28;20487;-77
2023/10/31 12:07:07;;;;;;;1.98;1.10;;;;;;;11.12;100.00;99641.16;6276750;28;20060;-79
2023/10/31 12:10:09;;;;;;;1.52;1.00;;;;;;;11.12;100.00;99654.28;6267978;28;20356;-75
2023/10/31 12:13:14;;;;;;;2.08;1.25;;;;;;;11.17;100.00;99650.41;6275165;28;20053;-75
2023/10/31 12:16:16;;;;;;;1.33;0.98;;;;;;;11.23;100.00;99657.00;6266253;28;20069;-78
2023/10/31 12:19:22;;;;;;;0.70;0.70;;;;;;;11.23;100.00;99650.91;6267805;28;20037;-76
2023/10/31 12:22:24;;;;;;;1.23;0.80;;;;;;;11.37;100.00;99661.22;6263429;28;20047;-75
2023/10/31 12:25:25;;;;;;;8.18;1.27;;;;;;;11.35;100.00;99673.66;6263413;28;20049;-76
2023/10/31 12:28:28;;;;;;;2.08;0.80;;;;;;;11.19;100.00;99668.69;6262849;28;20459;-78
2023/10/31 12:31:31;;;;;;;1.42;0.65;;;;;;;11.24;100.00;99682.34;6263847;28;20056;-77
2023/10/31 12:34:34;;;;;;;4.93;1.58;;;;;;;11.30;100.00;99687.13;6261835;28;20349;-77
2023/10/31 12:37:36;;;;;;;2.97;1.13;;;;;;;11.34;100.00;99693.84;6262885;28;20053;-76
2023/10/31 12:40:38;;;;;;;2.03;0.82;;;;;;;11.37;100.00;99695.44;6263496;28;20331;-77
2023/10/31 12:43:39;;;;;;;2.03;0.80;;;;;;;11.40;100.00;99703.94;6263421;28;20445;-77
2023/10/31 12:46:42;;;;;;;0.80;0.57;;;;;;;11.45;100.00;99695.72;6264167;28;20437;-78
2023/10/31 12:49:44;;;;;;;3.10;0.50;;;;;;;11.53;100.00;99708.28;6263337;28;20045;-79
2023/10/31 12:52:49;;;;;;;0.93;0.65;;;;;;;11.62;100.00;99702.34;6263257;28;20469;-77
2023/10/31 12:55:51;;;;;;;1.02;0.80;;;;;;;11.50;100.00;99704.09;6263776;28;20056;-78
2023/10/31 12:58:58;;;;;;;0.60;0.60;;;;;;;11.43;100.00;99706.31;6272913;28;20044;-77
2023/10/31 13:02:02;;;;;;;4.90;1.45;;;;;;;11.45;100.00;99708.88;6275074;28;20091;-78
2023/10/31 13:05:12;;;;;;;1.13;0.73;;;;;;;11.43;100.00;99721.28;6261499;28;20053;-78
2023/10/31 13:08:15;;;;;;;2.03;0.60;;;;;;;11.48;100.00;99715.69;6250443;28;20053;-78
2023/10/31 13:11:17;;;;;;;0.35;0.35;;;;;;;11.60;100.00;99710.34;6250397;28;20045;-77
2023/10/31 13:14:18;;;;;;;3.50;0.68;;;;;;;11.67;100.00;99718.63;6250345;28;20080;-78
2023/10/31 13:17:21;;;;;;;0.47;0.47;;;;;;;11.73;100.00;99730.50;6258270;28;20045;-78
2023/10/31 13:20:23;;;;;;;0.57;0.40;;;;;;;11.60;100.00;99736.66;6264273;28;20041;-78
2023/10/31 13:23:24;;;;;;;1.55;0.45;;;;;;;11.68;100.00;99739.59;6265035;28;20057;-75
2023/10/31 13:26:25;;;;;;;2.67;0.77;;;;;;;11.80;100.00;99740.44;6262866;28;20049;-77
2023/10/31 13:29:27;;;;;;;2.22;0.80;;;;;;;11.72;100.00;99740.19;6263823;28;20045;-78
2023/10/31 13:32:30;;;;;;;0.50;0.50;;;;;;;11.61;100.00;99753.28;6266213;28;20446;-76
2023/10/31 13:35:32;;;;;;;0.57;0.52;;;;;;;11.61;100.00;99750.66;6267057;28;20040;-77
2023/10/31 13:38:35;;;;;;;2.75;0.75;;;;;;;11.68;100.00;99751.91;6262352;28;20049;-77
2023/10/31 13:41:37;;;;;;;2.20;0.60;;;;;;;11.50;100.00;99750.63;6260420;28;20048;-78
2023/10/31 13:44:38;;;;;;;0.45;0.43;;;;;;;11.47;100.00;99758.72;6261619;28;20052;-77
2023/10/31 13:47:41;;;;;;;0.75;0.68;;;;;;;11.37;100.00;99769.91;6262122;28;20048;-73
2023/10/31 13:50:42;;;;;;;1.40;0.60;;;;;;;11.42;100.00;99778.31;6264027;28;20041;-73
2023/10/31 13:53:44;;;;;;;0.43;0.43;;;;;;;11.31;100.00;99778.28;6266030;28;20049;-76
2023/10/31 13:56:46;;;;;;;0.40;0.40;;;;;;;11.42;100.00;99794.09;6267283;28;20049;-76
2023/10/31 13:59:47;;;;;;;1.35;0.43;;;;;;;11.42;100.00;99796.72;6270160;28;20041;-76
2023/10/31 14:02:50;;;;;;;2.95;0.50;;;;;;;11.37;100.00;99803.28;6264888;28;20134;-76
2023/10/31 14:05:51;;;;;;;0.40;0.40;;;;;;;11.37;100.00;99813.81;6268690;28;20068;-76
2023/10/31 14:08:53;;;;;;;0.40;0.40;;;;;;;11.35;100.00;99808.63;6254656;28;20045;-76